sensor_id;sensor_type;location;lat;lon;timestamp;P1;durP1;ratioP1;P2;durP2;ratioP2
80297;SDS011;69599;52.622;9.230;2023-05-10T00:02:22;2.97;;;1.95;;
80297;SDS011;69599;52.622;9.230;2023-05-10T00:04:48;3.95;;;1.98;;
80297;SDS011;69599;52.622;9.230;2023-05-10T00:07:13;3.60;;;1.83;;
80297;SDS011;69599;52.622;9.230;2023-05-10T00:09:39;3.28;;;1.77;;
80297;SDS011;69599;52.622;9.230;2023-05-10T00:12:05;3.85;;;1.90;;
80297;SDS011;69599;52.622;9.230;2023-05-10T00:14:30;3.20;;;1.85;;
80297;SDS011;69599;52.622;9.230;2023-05-10T00:16:56;3.50;;;1.70;;
80297;SDS011;69599;52.622;9.230;2023-05-10T00:19:21;3.03;;;2.10;;
80297;SDS011;69599;52.622;9.230;2023-05-10T00:21:47;5.18;;;3.08;;
80297;SDS011;69599;52.622;9.230;2023-05-10T00:24:12;2.45;;;1.63;;
80297;SDS011;69599;52.622;9.230;2023-05-10T00:26:38;5.40;;;1.75;;
80297;SDS011;69599;52.622;9.230;2023-05-10T00:29:03;4.43;;;2.08;;
80297;SDS011;69599;52.622;9.230;2023-05-10T00:31:28;4.57;;;2.00;;
80297;SDS011;69599;52.622;9.230;2023-05-10T00:33:54;3.10;;;1.95;;
80297;SDS011;69599;52.622;9.230;2023-05-10T00:36:19;3.90;;;2.20;;
80297;SDS011;69599;52.622;9.230;2023-05-10T00:38:45;6.18;;;1.90;;
80297;SDS011;69599;52.622;9.230;2023-05-10T00:41:11;3.10;;;1.80;;
80297;SDS011;69599;52.622;9.230;2023-05-10T00:43:36;2.75;;;1.83;;
80297;SDS011;69599;52.622;9.230;2023-05-10T00:46:02;2.47;;;1.80;;
80297;SDS011;69599;52.622;9.230;2023-05-10T00:48:28;2.95;;;2.17;;
80297;SDS011;69599;52.622;9.230;2023-05-10T00:50:53;5.72;;;2.25;;
80297;SDS011;69599;52.622;9.230;2023-05-10T00:53:19;2.83;;;1.90;;
80297;SDS011;69599;52.622;9.230;2023-05-10T00:55:44;4.60;;;2.10;;
80297;SDS011;69599;52.622;9.230;2023-05-10T00:58:10;5.15;;;1.95;;
80297;SDS011;69599;52.622;9.230;2023-05-10T01:00:35;5.65;;;2.78;;
80297;SDS011;69599;52.622;9.230;2023-05-10T01:03:02;4.93;;;2.10;;
80297;SDS011;69599;52.622;9.230;2023-05-10T01:05:27;7.03;;;2.63;;
80297;SDS011;69599;52.622;9.230;2023-05-10T01:07:53;3.13;;;1.92;;
80297;SDS011;69599;52.622;9.230;2023-05-10T01:10:18;3.42;;;2.17;;
80297;SDS011;69599;52.622;9.230;2023-05-10T01:12:45;2.78;;;1.77;;
80297;SDS011;69599;52.622;9.230;2023-05-10T01:15:11;4.65;;;2.13;;
80297;SDS011;69599;52.622;9.230;2023-05-10T01:17:38;3.83;;;1.98;;
80297;SDS011;69599;52.622;9.230;2023-05-10T01:20:06;3.97;;;2.00;;
80297;SDS011;69599;52.622;9.230;2023-05-10T01:25:11;3.97;;;2.22;;
80297;SDS011;69599;52.622;9.230;2023-05-10T01:33:41;3.95;;;2.10;;
80297;SDS011;69599;52.622;9.230;2023-05-10T01:41:51;4.50;;;2.30;;
80297;SDS011;69599;52.622;9.230;2023-05-10T01:49:54;4.45;;;2.40;;
80297;SDS011;69599;52.622;9.230;2023-05-10T02:07:37;4.60;;;2.38;;
80297;SDS011;69599;52.622;9.230;2023-05-10T02:10:04;4.25;;;2.45;;
80297;SDS011;69599;52.622;9.230;2023-05-10T02:12:30;5.45;;;2.63;;
80297;SDS011;69599;52.622;9.230;2023-05-10T02:14:56;4.90;;;2.47;;
80297;SDS011;69599;52.622;9.230;2023-05-10T02:17:23;2.95;;;2.28;;
80297;SDS011;69599;52.622;9.230;2023-05-10T02:19:49;3.65;;;2.40;;
80297;SDS011;69599;52.622;9.230;2023-05-10T02:22:16;3.90;;;2.35;;
80297;SDS011;69599;52.622;9.230;2023-05-10T02:24:42;5.93;;;2.55;;
80297;SDS011;69599;52.622;9.230;2023-05-10T02:27:08;4.13;;;2.40;;
80297;SDS011;69599;52.622;9.230;2023-05-10T02:29:34;4.47;;;2.40;;
80297;SDS011;69599;52.622;9.230;2023-05-10T02:32:01;3.58;;;2.38;;
80297;SDS011;69599;52.622;9.230;2023-05-10T02:34:27;4.60;;;2.75;;
80297;SDS011;69599;52.622;9.230;2023-05-10T02:36:53;5.70;;;2.63;;
80297;SDS011;69599;52.622;9.230;2023-05-10T02:39:20;4.00;;;2.20;;
80297;SDS011;69599;52.622;9.230;2023-05-10T02:41:46;3.28;;;2.50;;
80297;SDS011;69599;52.622;9.230;2023-05-10T02:44:14;5.30;;;2.67;;
80297;SDS011;69599;52.622;9.230;2023-05-10T02:46:40;3.63;;;2.65;;
80297;SDS011;69599;52.622;9.230;2023-05-10T02:49:06;5.15;;;2.42;;
80297;SDS011;69599;52.622;9.230;2023-05-10T02:51:32;4.00;;;2.55;;
80297;SDS011;69599;52.622;9.230;2023-05-10T02:54:06;3.55;;;2.40;;
80297;SDS011;69599;52.622;9.230;2023-05-10T02:56:35;5.22;;;2.70;;
80297;SDS011;69599;52.622;9.230;2023-05-10T02:59:01;4.53;;;2.83;;
80297;SDS011;69599;52.622;9.230;2023-05-10T03:01:27;4.88;;;2.35;;
80297;SDS011;69599;52.622;9.230;2023-05-10T03:03:52;4.47;;;2.88;;
80297;SDS011;69599;52.622;9.230;2023-05-10T03:06:18;5.93;;;2.90;;
80297;SDS011;69599;52.622;9.230;2023-05-10T03:08:44;4.68;;;2.95;;
80297;SDS011;69599;52.622;9.230;2023-05-10T03:16:41;5.82;;;3.00;;
80297;SDS011;69599;52.622;9.230;2023-05-10T03:19:27;4.85;;;2.55;;
80297;SDS011;69599;52.622;9.230;2023-05-10T03:22:06;4.68;;;2.80;;
80297;SDS011;69599;52.622;9.230;2023-05-10T03:24:34;5.38;;;3.33;;
80297;SDS011;69599;52.622;9.230;2023-05-10T03:27:01;4.20;;;2.80;;
80297;SDS011;69599;52.622;9.230;2023-05-10T03:29:30;5.03;;;3.72;;
80297;SDS011;69599;52.622;9.230;2023-05-10T03:31:59;5.75;;;3.25;;
80297;SDS011;69599;52.622;9.230;2023-05-10T03:34:25;5.18;;;3.25;;
80297;SDS011;69599;52.622;9.230;2023-05-10T03:36:50;6.82;;;3.13;;
80297;SDS011;69599;52.622;9.230;2023-05-10T03:39:16;4.20;;;3.22;;
80297;SDS011;69599;52.622;9.230;2023-05-10T03:41:41;5.40;;;2.83;;
80297;SDS011;69599;52.622;9.230;2023-05-10T03:44:07;5.28;;;2.80;;
80297;SDS011;69599;52.622;9.230;2023-05-10T03:46:32;4.72;;;2.85;;
80297;SDS011;69599;52.622;9.230;2023-05-10T03:48:58;5.80;;;3.40;;
80297;SDS011;69599;52.622;9.230;2023-05-10T03:51:23;6.50;;;3.58;;
80297;SDS011;69599;52.622;9.230;2023-05-10T03:53:53;4.72;;;3.53;;
80297;SDS011;69599;52.622;9.230;2023-05-10T03:56:18;5.40;;;3.55;;
80297;SDS011;69599;52.622;9.230;2023-05-10T03:58:45;6.63;;;3.42;;
80297;SDS011;69599;52.622;9.230;2023-05-10T04:01:11;5.80;;;3.63;;
80297;SDS011;69599;52.622;9.230;2023-05-10T04:03:36;6.72;;;3.88;;
80297;SDS011;69599;52.622;9.230;2023-05-10T04:06:03;6.22;;;3.60;;
80297;SDS011;69599;52.622;9.230;2023-05-10T04:08:28;8.18;;;3.67;;
80297;SDS011;69599;52.622;9.230;2023-05-10T04:10:54;5.20;;;3.33;;
80297;SDS011;69599;52.622;9.230;2023-05-10T04:13:20;4.35;;;3.67;;
80297;SDS011;69599;52.622;9.230;2023-05-10T04:15:46;5.40;;;3.47;;
80297;SDS011;69599;52.622;9.230;2023-05-10T04:18:11;6.93;;;4.40;;
80297;SDS011;69599;52.622;9.230;2023-05-10T04:20:36;6.15;;;3.78;;
80297;SDS011;69599;52.622;9.230;2023-05-10T04:23:02;8.23;;;4.32;;
80297;SDS011;69599;52.622;9.230;2023-05-10T04:25:28;6.55;;;4.25;;
80297;SDS011;69599;52.622;9.230;2023-05-10T04:27:53;7.22;;;4.15;;
80297;SDS011;69599;52.622;9.230;2023-05-10T04:30:18;6.38;;;3.78;;
80297;SDS011;69599;52.622;9.230;2023-05-10T04:32:44;5.50;;;3.90;;
80297;SDS011;69599;52.622;9.230;2023-05-10T04:35:09;7.00;;;4.15;;
80297;SDS011;69599;52.622;9.230;2023-05-10T04:37:35;5.00;;;4.15;;
80297;SDS011;69599;52.622;9.230;2023-05-10T04:40:01;5.63;;;3.92;;
80297;SDS011;69599;52.622;9.230;2023-05-10T04:42:28;5.07;;;4.07;;
80297;SDS011;69599;52.622;9.230;2023-05-10T04:44:53;7.50;;;4.70;;
80297;SDS011;69599;52.622;9.230;2023-05-10T04:47:19;6.07;;;4.07;;
80297;SDS011;69599;52.622;9.230;2023-05-10T04:49:44;7.85;;;4.43;;
80297;SDS011;69599;52.622;9.230;2023-05-10T04:52:10;5.65;;;4.40;;
80297;SDS011;69599;52.622;9.230;2023-05-10T04:54:36;6.55;;;4.63;;
80297;SDS011;69599;52.622;9.230;2023-05-10T04:57:01;9.10;;;4.78;;
80297;SDS011;69599;52.622;9.230;2023-05-10T04:59:27;9.27;;;4.22;;
80297;SDS011;69599;52.622;9.230;2023-05-10T05:01:52;6.90;;;4.90;;
80297;SDS011;69599;52.622;9.230;2023-05-10T05:04:17;6.40;;;4.93;;
80297;SDS011;69599;52.622;9.230;2023-05-10T05:06:43;10.18;;;5.10;;
80297;SDS011;69599;52.622;9.230;2023-05-10T05:09:08;8.30;;;5.18;;
80297;SDS011;69599;52.622;9.230;2023-05-10T05:11:35;7.43;;;5.55;;
80297;SDS011;69599;52.622;9.230;2023-05-10T05:14:00;8.32;;;5.13;;
80297;SDS011;69599;52.622;9.230;2023-05-10T05:16:26;7.57;;;5.60;;
80297;SDS011;69599;52.622;9.230;2023-05-10T05:18:52;8.25;;;5.20;;
80297;SDS011;69599;52.622;9.230;2023-05-10T05:21:17;6.95;;;5.45;;
80297;SDS011;69599;52.622;9.230;2023-05-10T05:23:44;12.70;;;5.55;;
80297;SDS011;69599;52.622;9.230;2023-05-10T05:26:09;8.20;;;5.75;;
80297;SDS011;69599;52.622;9.230;2023-05-10T05:28:35;9.77;;;5.57;;
80297;SDS011;69599;52.622;9.230;2023-05-10T05:31:02;9.27;;;6.15;;
80297;SDS011;69599;52.622;9.230;2023-05-10T05:33:29;11.95;;;6.53;;
80297;SDS011;69599;52.622;9.230;2023-05-10T05:35:54;7.20;;;5.63;;
80297;SDS011;69599;52.622;9.230;2023-05-10T05:38:20;9.45;;;6.10;;
80297;SDS011;69599;52.622;9.230;2023-05-10T05:40:45;12.90;;;6.90;;
80297;SDS011;69599;52.622;9.230;2023-05-10T05:43:11;8.05;;;5.93;;
80297;SDS011;69599;52.622;9.230;2023-05-10T05:45:36;11.52;;;7.43;;
80297;SDS011;69599;52.622;9.230;2023-05-10T05:48:02;11.55;;;6.70;;
80297;SDS011;69599;52.622;9.230;2023-05-10T05:50:27;13.82;;;7.45;;
80297;SDS011;69599;52.622;9.230;2023-05-10T05:52:53;12.75;;;6.72;;
80297;SDS011;69599;52.622;9.230;2023-05-10T05:55:18;9.90;;;6.47;;
80297;SDS011;69599;52.622;9.230;2023-05-10T05:57:43;10.07;;;7.40;;
80297;SDS011;69599;52.622;9.230;2023-05-10T06:00:09;11.40;;;6.60;;
80297;SDS011;69599;52.622;9.230;2023-05-10T06:02:35;9.93;;;6.10;;
80297;SDS011;69599;52.622;9.230;2023-05-10T06:05:00;9.73;;;7.10;;
80297;SDS011;69599;52.622;9.230;2023-05-10T06:07:26;10.05;;;6.72;;
80297;SDS011;69599;52.622;9.230;2023-05-10T06:09:51;10.13;;;7.22;;
80297;SDS011;69599;52.622;9.230;2023-05-10T06:12:17;8.68;;;6.25;;
80297;SDS011;69599;52.622;9.230;2023-05-10T06:14:42;8.57;;;5.88;;
80297;SDS011;69599;52.622;9.230;2023-05-10T06:17:08;8.63;;;6.65;;
80297;SDS011;69599;52.622;9.230;2023-05-10T06:19:33;11.25;;;7.15;;
80297;SDS011;69599;52.622;9.230;2023-05-10T06:21:59;10.05;;;6.78;;
80297;SDS011;69599;52.622;9.230;2023-05-10T06:24:24;9.90;;;6.85;;
80297;SDS011;69599;52.622;9.230;2023-05-10T06:26:49;9.30;;;6.60;;
80297;SDS011;69599;52.622;9.230;2023-05-10T06:29:15;10.02;;;6.13;;
80297;SDS011;69599;52.622;9.230;2023-05-10T06:31:40;8.40;;;6.47;;
80297;SDS011;69599;52.622;9.230;2023-05-10T06:34:06;9.52;;;6.43;;
80297;SDS011;69599;52.622;9.230;2023-05-10T06:36:32;9.02;;;6.13;;
80297;SDS011;69599;52.622;9.230;2023-05-10T06:38:58;8.80;;;6.07;;
80297;SDS011;69599;52.622;9.230;2023-05-10T06:41:23;9.60;;;6.63;;
80297;SDS011;69599;52.622;9.230;2023-05-10T06:43:49;9.35;;;6.75;;
80297;SDS011;69599;52.622;9.230;2023-05-10T06:46:14;9.07;;;7.22;;
80297;SDS011;69599;52.622;9.230;2023-05-10T06:48:40;10.90;;;6.53;;
80297;SDS011;69599;52.622;9.230;2023-05-10T06:51:05;10.85;;;6.82;;
80297;SDS011;69599;52.622;9.230;2023-05-10T06:53:30;11.70;;;7.28;;
80297;SDS011;69599;52.622;9.230;2023-05-10T06:55:56;11.23;;;7.47;;
80297;SDS011;69599;52.622;9.230;2023-05-10T06:58:21;11.80;;;7.50;;
80297;SDS011;69599;52.622;9.230;2023-05-10T07:00:46;10.55;;;7.15;;
80297;SDS011;69599;52.622;9.230;2023-05-10T07:03:12;12.52;;;7.35;;
80297;SDS011;69599;52.622;9.230;2023-05-10T07:05:37;12.13;;;7.10;;
80297;SDS011;69599;52.622;9.230;2023-05-10T07:08:03;10.82;;;7.70;;
80297;SDS011;69599;52.622;9.230;2023-05-10T07:10:28;10.15;;;7.22;;
80297;SDS011;69599;52.622;9.230;2023-05-10T07:12:54;10.13;;;7.40;;
80297;SDS011;69599;52.622;9.230;2023-05-10T07:15:20;10.82;;;7.00;;
80297;SDS011;69599;52.622;9.230;2023-05-10T07:17:47;12.45;;;8.07;;
80297;SDS011;69599;52.622;9.230;2023-05-10T07:20:12;12.20;;;8.38;;
80297;SDS011;69599;52.622;9.230;2023-05-10T07:22:38;11.02;;;8.05;;
80297;SDS011;69599;52.622;9.230;2023-05-10T07:25:03;10.90;;;8.48;;
80297;SDS011;69599;52.622;9.230;2023-05-10T07:27:29;11.18;;;8.88;;
80297;SDS011;69599;52.622;9.230;2023-05-10T07:29:54;12.15;;;8.93;;
80297;SDS011;69599;52.622;9.230;2023-05-10T07:32:21;10.40;;;8.68;;
80297;SDS011;69599;52.622;9.230;2023-05-10T07:34:47;11.10;;;8.50;;
80297;SDS011;69599;52.622;9.230;2023-05-10T07:37:12;12.80;;;8.70;;
80297;SDS011;69599;52.622;9.230;2023-05-10T07:39:37;13.10;;;8.77;;
80297;SDS011;69599;52.622;9.230;2023-05-10T07:42:03;12.00;;;8.00;;
80297;SDS011;69599;52.622;9.230;2023-05-10T07:44:28;12.68;;;8.82;;
80297;SDS011;69599;52.622;9.230;2023-05-10T07:46:54;12.38;;;8.18;;
80297;SDS011;69599;52.622;9.230;2023-05-10T07:49:20;10.30;;;7.38;;
80297;SDS011;69599;52.622;9.230;2023-05-10T07:51:45;8.20;;;6.72;;
80297;SDS011;69599;52.622;9.230;2023-05-10T07:54:10;9.52;;;7.00;;
80297;SDS011;69599;52.622;9.230;2023-05-10T07:56:36;12.38;;;6.25;;
80297;SDS011;69599;52.622;9.230;2023-05-10T07:59:02;7.82;;;5.85;;
80297;SDS011;69599;52.622;9.230;2023-05-10T08:01:32;7.28;;;4.82;;
80297;SDS011;69599;52.622;9.230;2023-05-10T08:03:58;6.32;;;5.15;;
80297;SDS011;69599;52.622;9.230;2023-05-10T08:06:23;6.53;;;4.40;;
80297;SDS011;69599;52.622;9.230;2023-05-10T08:08:51;6.20;;;4.20;;
80297;SDS011;69599;52.622;9.230;2023-05-10T08:11:18;5.65;;;3.80;;
80297;SDS011;69599;52.622;9.230;2023-05-10T08:13:45;3.78;;;3.03;;
80297;SDS011;69599;52.622;9.230;2023-05-10T08:16:11;5.03;;;3.15;;
80297;SDS011;69599;52.622;9.230;2023-05-10T08:18:37;3.97;;;2.85;;
80297;SDS011;69599;52.622;9.230;2023-05-10T08:21:03;4.22;;;2.83;;
80297;SDS011;69599;52.622;9.230;2023-05-10T08:23:28;3.22;;;2.40;;
80297;SDS011;69599;52.622;9.230;2023-05-10T08:25:54;3.95;;;2.97;;
80297;SDS011;69599;52.622;9.230;2023-05-10T08:28:19;3.60;;;2.80;;
80297;SDS011;69599;52.622;9.230;2023-05-10T08:30:44;4.05;;;3.08;;
80297;SDS011;69599;52.622;9.230;2023-05-10T08:33:10;4.00;;;2.72;;
80297;SDS011;69599;52.622;9.230;2023-05-10T08:35:35;4.68;;;3.45;;
80297;SDS011;69599;52.622;9.230;2023-05-10T08:38:01;3.63;;;2.78;;
80297;SDS011;69599;52.622;9.230;2023-05-10T08:40:26;3.88;;;2.65;;
80297;SDS011;69599;52.622;9.230;2023-05-10T08:43:04;4.30;;;2.85;;
80297;SDS011;69599;52.622;9.230;2023-05-10T08:48:03;4.00;;;2.53;;
80297;SDS011;69599;52.622;9.230;2023-05-10T08:50:36;4.38;;;2.70;;
80297;SDS011;69599;52.622;9.230;2023-05-10T08:53:09;4.35;;;3.35;;
80297;SDS011;69599;52.622;9.230;2023-05-10T08:55:35;5.70;;;3.60;;
80297;SDS011;69599;52.622;9.230;2023-05-10T08:58:05;4.35;;;3.28;;
80297;SDS011;69599;52.622;9.230;2023-05-10T09:00:31;4.70;;;3.45;;
80297;SDS011;69599;52.622;9.230;2023-05-10T09:02:57;5.45;;;3.38;;
80297;SDS011;69599;52.622;9.230;2023-05-10T09:05:23;4.50;;;2.97;;
80297;SDS011;69599;52.622;9.230;2023-05-10T09:07:49;5.28;;;3.08;;
80297;SDS011;69599;52.622;9.230;2023-05-10T09:10:14;4.35;;;2.90;;
80297;SDS011;69599;52.622;9.230;2023-05-10T09:12:41;3.20;;;2.55;;
80297;SDS011;69599;52.622;9.230;2023-05-10T09:15:12;4.75;;;3.42;;
80297;SDS011;69599;52.622;9.230;2023-05-10T09:17:40;5.22;;;3.22;;
80297;SDS011;69599;52.622;9.230;2023-05-10T09:20:05;4.53;;;3.00;;
80297;SDS011;69599;52.622;9.230;2023-05-10T09:22:32;4.78;;;3.05;;
80297;SDS011;69599;52.622;9.230;2023-05-10T09:25:07;4.53;;;3.20;;
80297;SDS011;69599;52.622;9.230;2023-05-10T09:27:34;4.28;;;2.97;;
80297;SDS011;69599;52.622;9.230;2023-05-10T09:30:01;4.35;;;3.00;;
80297;SDS011;69599;52.622;9.230;2023-05-10T09:32:39;4.93;;;2.85;;
80297;SDS011;69599;52.622;9.230;2023-05-10T09:35:09;5.53;;;3.35;;
80297;SDS011;69599;52.622;9.230;2023-05-10T09:37:36;5.07;;;3.38;;
80297;SDS011;69599;52.622;9.230;2023-05-10T09:40:04;5.10;;;3.63;;
80297;SDS011;69599;52.622;9.230;2023-05-10T09:42:31;5.05;;;3.25;;
80297;SDS011;69599;52.622;9.230;2023-05-10T09:45:03;5.72;;;4.03;;
80297;SDS011;69599;52.622;9.230;2023-05-10T09:47:28;6.30;;;3.55;;
80297;SDS011;69599;52.622;9.230;2023-05-10T09:49:55;3.63;;;2.60;;
80297;SDS011;69599;52.622;9.230;2023-05-10T09:52:23;5.80;;;3.83;;
80297;SDS011;69599;52.622;9.230;2023-05-10T09:54:52;7.38;;;3.67;;
80297;SDS011;69599;52.622;9.230;2023-05-10T09:57:20;6.45;;;3.75;;
80297;SDS011;69599;52.622;9.230;2023-05-10T09:59:46;5.63;;;3.70;;
80297;SDS011;69599;52.622;9.230;2023-05-10T10:02:12;7.68;;;4.43;;
80297;SDS011;69599;52.622;9.230;2023-05-10T10:04:39;6.75;;;4.80;;
80297;SDS011;69599;52.622;9.230;2023-05-10T10:07:04;5.55;;;3.80;;
80297;SDS011;69599;52.622;9.230;2023-05-10T10:09:30;7.15;;;4.25;;
80297;SDS011;69599;52.622;9.230;2023-05-10T10:11:56;6.53;;;4.32;;
80297;SDS011;69599;52.622;9.230;2023-05-10T10:14:22;7.65;;;4.80;;
80297;SDS011;69599;52.622;9.230;2023-05-10T10:16:49;7.03;;;5.05;;
80297;SDS011;69599;52.622;9.230;2023-05-10T10:19:15;7.28;;;4.03;;
80297;SDS011;69599;52.622;9.230;2023-05-10T10:21:43;10.20;;;4.88;;
80297;SDS011;69599;52.622;9.230;2023-05-10T10:24:08;6.68;;;4.40;;
80297;SDS011;69599;52.622;9.230;2023-05-10T10:26:33;8.07;;;4.15;;
80297;SDS011;69599;52.622;9.230;2023-05-10T10:32:03;6.97;;;4.55;;
80297;SDS011;69599;52.622;9.230;2023-05-10T10:34:32;6.40;;;4.43;;
80297;SDS011;69599;52.622;9.230;2023-05-10T10:36:58;6.70;;;4.50;;
80297;SDS011;69599;52.622;9.230;2023-05-10T10:39:29;7.18;;;4.30;;
80297;SDS011;69599;52.622;9.230;2023-05-10T10:41:56;8.55;;;5.10;;
80297;SDS011;69599;52.622;9.230;2023-05-10T10:55:02;8.43;;;5.32;;
80297;SDS011;69599;52.622;9.230;2023-05-10T10:57:53;8.20;;;5.07;;
80297;SDS011;69599;52.622;9.230;2023-05-10T11:00:35;8.10;;;5.47;;
80297;SDS011;69599;52.622;9.230;2023-05-10T11:03:05;7.72;;;5.22;;
80297;SDS011;69599;52.622;9.230;2023-05-10T11:05:42;8.88;;;5.43;;
80297;SDS011;69599;52.622;9.230;2023-05-10T11:08:12;8.07;;;4.80;;
80297;SDS011;69599;52.622;9.230;2023-05-10T11:13:30;7.63;;;5.72;;
80297;SDS011;69599;52.622;9.230;2023-05-10T11:15:55;6.55;;;5.25;;
80297;SDS011;69599;52.622;9.230;2023-05-10T11:18:28;9.90;;;5.60;;
80297;SDS011;69599;52.622;9.230;2023-05-10T11:20:58;8.90;;;5.30;;
80297;SDS011;69599;52.622;9.230;2023-05-10T11:26:23;9.60;;;5.65;;
80297;SDS011;69599;52.622;9.230;2023-05-10T11:28:51;9.75;;;5.95;;
80297;SDS011;69599;52.622;9.230;2023-05-10T11:31:19;9.63;;;6.15;;
80297;SDS011;69599;52.622;9.230;2023-05-10T11:33:45;10.38;;;6.15;;
80297;SDS011;69599;52.622;9.230;2023-05-10T11:36:15;11.82;;;7.05;;
80297;SDS011;69599;52.622;9.230;2023-05-10T11:38:54;9.20;;;5.78;;
80297;SDS011;69599;52.622;9.230;2023-05-10T11:41:21;10.10;;;6.22;;
80297;SDS011;69599;52.622;9.230;2023-05-10T11:43:52;10.45;;;5.72;;
80297;SDS011;69599;52.622;9.230;2023-05-10T11:46:19;12.40;;;7.13;;
80297;SDS011;69599;52.622;9.230;2023-05-10T11:48:45;9.25;;;5.28;;
80297;SDS011;69599;52.622;9.230;2023-05-10T11:51:12;8.02;;;4.20;;
80297;SDS011;69599;52.622;9.230;2023-05-10T11:53:37;4.88;;;3.78;;
80297;SDS011;69599;52.622;9.230;2023-05-10T11:56:12;4.57;;;3.13;;
80297;SDS011;69599;52.622;9.230;2023-05-10T11:58:38;5.07;;;3.13;;
80297;SDS011;69599;52.622;9.230;2023-05-10T12:01:04;5.88;;;3.00;;
80297;SDS011;69599;52.622;9.230;2023-05-10T12:03:31;5.88;;;3.13;;
80297;SDS011;69599;52.622;9.230;2023-05-10T12:05:56;5.40;;;3.10;;
80297;SDS011;69599;52.622;9.230;2023-05-10T12:08:24;6.60;;;3.75;;
80297;SDS011;69599;52.622;9.230;2023-05-10T12:10:50;6.32;;;3.55;;
80297;SDS011;69599;52.622;9.230;2023-05-10T12:13:16;8.18;;;4.82;;
80297;SDS011;69599;52.622;9.230;2023-05-10T12:15:42;10.70;;;5.05;;
80297;SDS011;69599;52.622;9.230;2023-05-10T12:18:11;10.15;;;5.05;;
80297;SDS011;69599;52.622;9.230;2023-05-10T12:20:38;8.48;;;5.28;;
80297;SDS011;69599;52.622;9.230;2023-05-10T12:23:08;9.05;;;5.47;;
80297;SDS011;69599;52.622;9.230;2023-05-10T12:25:35;12.18;;;7.43;;
80297;SDS011;69599;52.622;9.230;2023-05-10T12:28:04;12.32;;;6.95;;
80297;SDS011;69599;52.622;9.230;2023-05-10T12:30:32;12.18;;;7.10;;
80297;SDS011;69599;52.622;9.230;2023-05-10T12:33:00;12.32;;;6.70;;
80297;SDS011;69599;52.622;9.230;2023-05-10T12:35:29;14.02;;;8.52;;
80297;SDS011;69599;52.622;9.230;2023-05-10T12:40:20;16.00;;;9.40;;
80297;SDS011;69599;52.622;9.230;2023-05-10T12:42:46;18.38;;;9.75;;
80297;SDS011;69599;52.622;9.230;2023-05-10T12:45:11;19.27;;;9.25;;
80297;SDS011;69599;52.622;9.230;2023-05-10T12:47:37;20.30;;;9.80;;
80297;SDS011;69599;52.622;9.230;2023-05-10T12:50:03;17.42;;;8.25;;
80297;SDS011;69599;52.622;9.230;2023-05-10T12:52:29;18.45;;;9.18;;
80297;SDS011;69599;52.622;9.230;2023-05-10T12:54:56;11.40;;;6.70;;
80297;SDS011;69599;52.622;9.230;2023-05-10T12:57:21;10.95;;;5.95;;
80297;SDS011;69599;52.622;9.230;2023-05-10T12:59:47;9.80;;;5.07;;
80297;SDS011;69599;52.622;9.230;2023-05-10T13:02:12;11.27;;;5.78;;
80297;SDS011;69599;52.622;9.230;2023-05-10T13:04:40;10.82;;;5.75;;
80297;SDS011;69599;52.622;9.230;2023-05-10T13:07:06;9.32;;;5.13;;
80297;SDS011;69599;52.622;9.230;2023-05-10T13:09:32;8.80;;;4.63;;
80297;SDS011;69599;52.622;9.230;2023-05-10T13:11:57;6.10;;;4.28;;
80297;SDS011;69599;52.622;9.230;2023-05-10T13:14:23;7.25;;;4.30;;
80297;SDS011;69599;52.622;9.230;2023-05-10T13:16:49;5.82;;;4.00;;
80297;SDS011;69599;52.622;9.230;2023-05-10T13:19:15;5.57;;;3.65;;
80297;SDS011;69599;52.622;9.230;2023-05-10T13:21:41;6.28;;;3.88;;
80297;SDS011;69599;52.622;9.230;2023-05-10T13:24:06;7.38;;;3.65;;
80297;SDS011;69599;52.622;9.230;2023-05-10T13:26:32;6.70;;;3.88;;
80297;SDS011;69599;52.622;9.230;2023-05-10T13:28:58;9.38;;;3.70;;
80297;SDS011;69599;52.622;9.230;2023-05-10T13:31:23;6.82;;;3.80;;
80297;SDS011;69599;52.622;9.230;2023-05-10T13:33:49;4.78;;;3.55;;
80297;SDS011;69599;52.622;9.230;2023-05-10T13:36:14;5.72;;;3.63;;
80297;SDS011;69599;52.622;9.230;2023-05-10T13:38:40;6.00;;;3.20;;
80297;SDS011;69599;52.622;9.230;2023-05-10T13:41:05;4.13;;;2.90;;
80297;SDS011;69599;52.622;9.230;2023-05-10T13:43:31;4.15;;;2.28;;
80297;SDS011;69599;52.622;9.230;2023-05-10T13:45:56;4.15;;;2.60;;
80297;SDS011;69599;52.622;9.230;2023-05-10T13:48:22;2.97;;;1.60;;
80297;SDS011;69599;52.622;9.230;2023-05-10T13:50:47;3.42;;;1.83;;
80297;SDS011;69599;52.622;9.230;2023-05-10T13:53:12;2.65;;;1.48;;
80297;SDS011;69599;52.622;9.230;2023-05-10T13:55:39;1.98;;;1.20;;
80297;SDS011;69599;52.622;9.230;2023-05-10T13:58:04;1.77;;;1.10;;
80297;SDS011;69599;52.622;9.230;2023-05-10T14:00:30;2.28;;;1.30;;
80297;SDS011;69599;52.622;9.230;2023-05-10T14:02:56;1.80;;;1.33;;
80297;SDS011;69599;52.622;9.230;2023-05-10T14:05:21;2.85;;;1.95;;
80297;SDS011;69599;52.622;9.230;2023-05-10T14:07:48;2.55;;;1.27;;
80297;SDS011;69599;52.622;9.230;2023-05-10T14:10:15;1.60;;;1.20;;
80297;SDS011;69599;52.622;9.230;2023-05-10T14:12:40;2.03;;;1.30;;
80297;SDS011;69599;52.622;9.230;2023-05-10T14:15:06;2.92;;;1.40;;
80297;SDS011;69599;52.622;9.230;2023-05-10T14:17:32;1.90;;;1.08;;
80297;SDS011;69599;52.622;9.230;2023-05-10T14:19:57;2.13;;;1.50;;
80297;SDS011;69599;52.622;9.230;2023-05-10T14:22:23;2.00;;;1.20;;
80297;SDS011;69599;52.622;9.230;2023-05-10T14:24:48;3.45;;;1.52;;
80297;SDS011;69599;52.622;9.230;2023-05-10T14:27:15;1.88;;;1.02;;
80297;SDS011;69599;52.622;9.230;2023-05-10T14:29:41;1.50;;;1.20;;
80297;SDS011;69599;52.622;9.230;2023-05-10T14:32:06;1.50;;;1.15;;
80297;SDS011;69599;52.622;9.230;2023-05-10T14:34:32;1.65;;;0.98;;
80297;SDS011;69599;52.622;9.230;2023-05-10T14:36:57;1.50;;;1.10;;
80297;SDS011;69599;52.622;9.230;2023-05-10T14:39:23;2.60;;;1.40;;
80297;SDS011;69599;52.622;9.230;2023-05-10T14:41:49;1.50;;;1.10;;
80297;SDS011;69599;52.622;9.230;2023-05-10T14:44:16;1.45;;;1.20;;
80297;SDS011;69599;52.622;9.230;2023-05-10T14:46:41;1.60;;;1.25;;
80297;SDS011;69599;52.622;9.230;2023-05-10T14:49:07;1.85;;;1.38;;
80297;SDS011;69599;52.622;9.230;2023-05-10T14:51:33;2.63;;;1.70;;
80297;SDS011;69599;52.622;9.230;2023-05-10T14:53:58;2.58;;;1.60;;
80297;SDS011;69599;52.622;9.230;2023-05-10T14:56:24;3.55;;;1.80;;
80297;SDS011;69599;52.622;9.230;2023-05-10T14:58:51;3.17;;;1.38;;
80297;SDS011;69599;52.622;9.230;2023-05-10T15:01:16;2.70;;;1.80;;
80297;SDS011;69599;52.622;9.230;2023-05-10T15:03:42;2.42;;;1.60;;
80297;SDS011;69599;52.622;9.230;2023-05-10T15:06:08;2.50;;;1.33;;
80297;SDS011;69599;52.622;9.230;2023-05-10T15:08:33;1.98;;;1.00;;
80297;SDS011;69599;52.622;9.230;2023-05-10T15:10:59;2.20;;;1.10;;
80297;SDS011;69599;52.622;9.230;2023-05-10T15:13:24;2.13;;;0.88;;
80297;SDS011;69599;52.622;9.230;2023-05-10T15:15:50;1.38;;;1.00;;
80297;SDS011;69599;52.622;9.230;2023-05-10T15:18:15;1.63;;;1.02;;
80297;SDS011;69599;52.622;9.230;2023-05-10T15:20:41;1.15;;;0.80;;
80297;SDS011;69599;52.622;9.230;2023-05-10T15:23:07;2.58;;;1.20;;
80297;SDS011;69599;52.622;9.230;2023-05-10T15:25:32;1.63;;;0.98;;
80297;SDS011;69599;52.622;9.230;2023-05-10T15:28:00;2.03;;;1.00;;
80297;SDS011;69599;52.622;9.230;2023-05-10T15:30:27;1.25;;;1.10;;
80297;SDS011;69599;52.622;9.230;2023-05-10T15:32:52;1.83;;;1.17;;
80297;SDS011;69599;52.622;9.230;2023-05-10T15:35:18;1.40;;;0.90;;
80297;SDS011;69599;52.622;9.230;2023-05-10T15:37:43;1.67;;;1.27;;
80297;SDS011;69599;52.622;9.230;2023-05-10T15:40:09;1.70;;;1.08;;
80297;SDS011;69599;52.622;9.230;2023-05-10T15:42:35;1.73;;;1.00;;
80297;SDS011;69599;52.622;9.230;2023-05-10T15:45:00;1.23;;;0.90;;
80297;SDS011;69599;52.622;9.230;2023-05-10T15:47:26;0.93;;;0.70;;